Flight Track Log - Related Links

Times and Time Zones

All times are in EDT time to prevent confusion due to time zone crossing. See the N80166 flight status page for this flight to view local times or setup timezone preferences in your user account.

Time Position Orientation Groundspeed Altitude Reporting Facility
EDT Latitude Longitude Course Direction KTS MPH feet Rate Location/Type
Wed 05:21:00 PM 35.9068 -79.3607 147° Southeast  Level Estimated
Wed 05:22:00 PM 35.8785 -79.3380 147° Southeast  Level Estimated
Wed 05:23:00 PM 35.8501 -79.3152 147° Southeast  Level Estimated
Wed 05:24:00 PM 35.8218 -79.2925 147° Southeast  Level Estimated
Wed 05:25:00 PM 35.7934 -79.2697 147° Southeast  Level Estimated
Wed 05:25:35 PM 36.1189 -79.5800 147° Southeast 100 115 3,100  Level Washington Center
Wed 05:26:00 PM 35.7650 -79.2470 147° Southeast  Level Estimated
Wed 05:26:48 PM 36.0906 -79.5556 145° Southeast 99 114 3,000  Level Washington Center
Wed 05:27:00 PM 35.7366 -79.2243 147° Southeast  Level Estimated
Wed 05:27:49 PM 36.0681 -79.5364 145° Southeast 98 113 3,000  Level Washington Center
Wed 05:28:00 PM 35.7082 -79.2016 147° Southeast  Level Estimated
Wed 05:28:50 PM 36.0436 -79.5172 148° Southeast 102 117 3,000  Level Washington Center
Wed 05:29:00 PM 35.6799 -79.1790 147° Southeast  Level Estimated
Wed 05:29:57 PM 36.0194 -79.4956 144° Southeast 99 114 3,100  Level Washington Center
Wed 05:30:00 PM 35.6515 -79.1563 147° Southeast  Level Estimated
Wed 05:30:58 PM 35.9928 -79.4789 153° Southeast 98 113 3,100  Level Washington Center
Wed 05:31:59 PM 35.9725 -79.4572 139° Southeast 98 113 3,100 -50 Level Washington Center
Wed 05:32:59 PM 35.9592 -79.4258 118° Southeast 109 125 3,000 -50 Descending Washington Center
Wed 05:34:00 PM 35.9367 -79.4042 142° Southeast 100 115 3,000  Level Washington Center
Wed 05:35:00 PM 35.9122 -79.3928 159° South 104 120 3,000  Level Washington Center
Wed 05:35:55 PM 35.8875 -79.3761 151° Southeast 114 131 3,000  Level Washington Center
Wed 05:37:01 PM 35.8653 -79.3547 142° Southeast 95 109 3,000  Level Washington Center

Login

Don't have an account? Register now (free) for customized features, flight alerts, and more!